»·PEaware :: N136GH KVGT-P52

N136GH :: KVGT-P52

FLIGHT INFORMATION

Flight Status: Arrived
Operator: Privately registered:
United States
More flights under this callsign
Pilot: Gabor H. (24209)
Aircraft: BEECH AIRCRAFT BONANZA
(BE36)
More flights by this aircraft type
Origin: KVGT North Las Vegas
United States
Destination: P52 Cottonwood
United States
More flights between these airports :: More routes between these airports
Route: +NOTWN5 LAS V105 DRK
File this flight plan on PilotEdge
Remarks:
Altitude:
(Current/Filed)
11,000ft
Speed:
(Current/Filed)
160kts
Departed: 20-Mar-20 07:51 AM
Arrived: 20-Mar-20 09:06 AM
Distance/Time
Traveled:
178nm/1:15
Distance/Time
To Go:
Arrived

Flight Plot

Page will automatically refresh every two minutes.

Flight plan parsing failed; only flown route is shown


Map Options




Map Legend


Flown Route
Filed Route
Departure Airport
Arrival Airport
Navaid (VOR, NDB)
Fix

Horizontal Profiles

Position Reports

Time Latitude Longitude Heading Altitude Ground
Speed
20-Mar-20 07:32 36.211132 -115.202911 144 2207ft 0kts
20-Mar-20 07:33 36.211132 -115.202911 144 2207ft 0kts
20-Mar-20 07:34 36.211131 -115.202911 144 2207ft 0kts
20-Mar-20 07:35 36.211131 -115.202911 144 2207ft 0kts
20-Mar-20 07:36 36.211131 -115.202911 144 2207ft 0kts
20-Mar-20 07:37 36.211131 -115.202911 144 2207ft 0kts
20-Mar-20 07:38 36.211131 -115.202911 144 2207ft 0kts
20-Mar-20 07:39 36.211131 -115.202911 144 2207ft 0kts
20-Mar-20 07:40 36.211131 -115.202911 144 2207ft 0kts
20-Mar-20 07:41 36.211131 -115.202911 144 2207ft 0kts
20-Mar-20 07:42 36.211131 -115.202911 144 2207ft 0kts
20-Mar-20 07:43 36.211131 -115.202911 144 2207ft 0kts
20-Mar-20 07:44 36.211880 -115.201275 44 2204ft 0kts
20-Mar-20 07:45 36.211880 -115.201275 44 2204ft 0kts
20-Mar-20 07:46 36.211880 -115.201275 44 2204ft 0kts
20-Mar-20 07:47 36.211880 -115.201275 44 2204ft 0kts
20-Mar-20 07:48 36.212646 -115.201337 293 2204ft 9kts
20-Mar-20 07:49 36.214189 -115.203196 38 2208ft 0kts
20-Mar-20 07:50 36.213581 -115.201233 134 2204ft 48kts
20-Mar-20 07:51 36.194688 -115.178860 160 2748ft 118kts
20-Mar-20 07:52 36.178497 -115.211538 260 3643ft 135kts
20-Mar-20 07:53 36.195877 -115.248602 324 4630ft 133kts
20-Mar-20 07:54 36.230392 -115.275970 328 4971ft 167kts
20-Mar-20 07:55 36.258807 -115.260661 120 5518ft 141kts
20-Mar-20 07:56 36.227242 -115.244268 158 6469ft 123kts
20-Mar-20 07:57 36.194259 -115.225913 156 7045ft 132kts
20-Mar-20 07:58 36.161378 -115.206943 156 7732ft 129kts
20-Mar-20 07:59 36.129374 -115.188502 156 8420ft 125kts
20-Mar-20 08:00 36.098191 -115.170504 157 8994ft 129kts
20-Mar-20 08:02 36.073342 -115.135781 115 9216ft 151kts
20-Mar-20 08:03 36.058416 -115.084728 109 9414ft 165kts
20-Mar-20 08:04 36.043547 -115.031731 111 9886ft 156kts
20-Mar-20 08:05 36.029667 -114.982684 112 10467ft 147kts
20-Mar-20 08:06 36.016485 -114.936282 113 10984ft 144kts
20-Mar-20 08:07 36.001884 -114.885233 112 10994ft 168kts
20-Mar-20 08:08 35.979959 -114.833484 126 10990ft 171kts
20-Mar-20 08:09 35.953872 -114.783813 126 10990ft 172kts
20-Mar-20 08:10 35.927785 -114.734198 126 10990ft 173kts
20-Mar-20 08:11 35.901548 -114.684437 126 10990ft 173kts
20-Mar-20 08:12 35.875183 -114.634478 126 10992ft 173kts
20-Mar-20 08:13 35.848732 -114.584400 126 10974ft 174kts
20-Mar-20 08:14 35.822325 -114.534444 126 10974ft 174kts
20-Mar-20 08:15 35.795865 -114.484472 126 10974ft 174kts
20-Mar-20 08:16 35.769521 -114.434794 126 10999ft 173kts
20-Mar-20 08:17 35.743196 -114.385196 126 10994ft 170kts
20-Mar-20 08:18 35.717406 -114.336708 127 10988ft 168kts
20-Mar-20 08:19 35.691882 -114.288788 127 10990ft 167kts
20-Mar-20 08:20 35.666318 -114.240859 127 10982ft 168kts
20-Mar-20 08:20 35.644989 -114.200917 127 10981ft 168kts
20-Mar-20 08:22 35.615053 -114.144930 127 10981ft 168kts
20-Mar-20 08:23 35.589357 -114.096950 127 10981ft 168kts
20-Mar-20 08:23 35.567953 -114.057039 127 10981ft 168kts
20-Mar-20 08:25 35.537925 -114.001124 127 10981ft 168kts
20-Mar-20 08:26 35.512166 -113.953225 127 10981ft 168kts
20-Mar-20 08:26 35.490699 -113.913395 127 10981ft 168kts
20-Mar-20 08:28 35.460608 -113.857634 127 10981ft 168kts
20-Mar-20 08:28 35.439037 -113.817704 127 10981ft 168kts
20-Mar-20 08:29 35.413208 -113.769902 127 10981ft 168kts
20-Mar-20 08:30 35.387413 -113.722225 127 10981ft 168kts
20-Mar-20 08:31 35.361521 -113.674430 127 10981ft 168kts
20-Mar-20 08:32 35.335689 -113.626834 127 10981ft 168kts
20-Mar-20 08:33 35.309728 -113.579144 127 10981ft 168kts
20-Mar-20 08:34 35.283711 -113.531424 127 10981ft 168kts
20-Mar-20 08:35 35.257773 -113.483857 127 10981ft 168kts
20-Mar-20 08:36 35.231766 -113.436217 127 10981ft 168kts
20-Mar-20 08:37 35.205846 -113.388798 127 10981ft 168kts
20-Mar-20 08:38 35.179689 -113.341015 128 10980ft 168kts
20-Mar-20 08:39 35.153704 -113.293599 128 10973ft 168kts
20-Mar-20 08:40 35.127650 -113.246128 128 10973ft 168kts
20-Mar-20 08:41 35.101668 -113.198852 128 10976ft 168kts
20-Mar-20 08:42 35.075618 -113.151524 128 10980ft 168kts
20-Mar-20 08:43 35.049502 -113.104129 128 10984ft 168kts
20-Mar-20 08:44 35.023327 -113.056710 128 10987ft 168kts
20-Mar-20 08:45 34.997067 -113.009199 127 10989ft 169kts
20-Mar-20 08:46 34.978756 -112.954365 111 10611ft 185kts
20-Mar-20 08:47 34.962470 -112.893358 110 10000ft 188kts
20-Mar-20 08:48 34.947208 -112.836002 111 9989ft 172kts
20-Mar-20 08:49 34.932242 -112.780175 111 9990ft 173kts
20-Mar-20 08:50 34.917271 -112.724334 111 9989ft 173kts
20-Mar-20 08:51 34.902245 -112.668407 111 9989ft 173kts
20-Mar-20 08:52 34.887193 -112.612505 111 9992ft 173kts
20-Mar-20 08:53 34.871297 -112.553524 110 9454ft 193kts
20-Mar-20 08:54 34.854142 -112.490020 110 8772ft 199kts
20-Mar-20 08:55 34.837247 -112.427556 110 8488ft 185kts
20-Mar-20 08:56 34.821486 -112.369561 110 8491ft 177kts
20-Mar-20 08:57 34.805998 -112.312674 111 8491ft 175kts
20-Mar-20 08:58 34.798583 -112.256218 53 8486ft 181kts
20-Mar-20 08:59 34.829310 -112.207776 60 8111ft 185kts
20-Mar-20 09:00 34.844328 -112.148400 91 7089ft 181kts
20-Mar-20 09:01 34.812485 -112.106135 144 6035ft 175kts
20-Mar-20 09:02 34.781234 -112.077161 139 5138ft 111kts
20-Mar-20 09:03 34.757889 -112.050685 149 4063ft 104kts
20-Mar-20 09:04 34.733147 -112.036761 159 3532ft 71kts
20-Mar-20 09:05 34.729472 -112.035395 337 3543ft 16kts
20-Mar-20 09:06 34.734109 -112.038188 337 3530ft 15kts
20-Mar-20 09:07 34.734621 -112.038687 241 3529ft 0kts

Navigation Log

Ident Type
Flight plan parsing failed, navigation log unavailable